ESNK/KRF METAR and TAF weather

Enter ICAO airport designator
Station Type Date Time Source
ESNK METAR 2020/11/27 14:50 UTC NOAA

ESNK 271450Z 30003KT CAVOK M05/M05 Q1022


Station Type Date Time Source
ESNK Decoded METAR 2020/11/27 14:50 UTC NOAA

Kramfors Flygplats, Sweden (ESNK) 63-03N 017-46E 19M
Nov 27, 2020 - 09:50 AM EST / 2020.11.27 1450 UTC
Wind: from the WNW (300 degrees) at 3 MPH (3 KT):0
Visibility: greater than 7 mile(s):0
Temperature: 23 F (-5 C)
Dew Point: 23 F (-5 C)
Relative Humidity: 100%
Pressure (altimeter): 30.18 in. Hg (1022 hPa)
ob: ESNK 271450Z 30003KT CAVOK M05/M05 Q1022
cycle: 15

Station Type Date Time Source
ESNK TAF 2017/12/15 06:00 UTC NOAA

TAF
AMD ESNK 150654Z 1506/1521 35005KT 6000 -SN BKN016
TEMPO 1506/1521 2000 SN SG VV009

Example: see airport list